West Bend, Wisconsin
Current Conditions -  °F | °C
As of 5:10 AM on Sunday 21 Dec 2014 (Local Time) from KETB Reporting Station
Overcast Overcast  
Wind Chill: 25°   Ceiling: 900
Heat Index: 30°   Visibility: 7mi
Dew Point: 27°   Wind: 5mph
Humidity: 86%   Direction: 190°S
Pressure: 30.16"   Gusts: NA
Location:  43.41°N, 88.18°W
Report Text: KETB 211110Z AUTO 19004KT 7SM OVC009 M01/M03 A3016 RMK AO2
Loading
Personal Weather Stations






























Interactive Weather Map New forecast layout! Learn more

10-Day Weather Forecast

Advertisements
Track Severe Weather on mobile